KLND

Hunt Field Airport

Lander, Wyoming, USA
KLND 221130Z 2212/2312 VRB05KT P6SM SCT030 BKN050 FM221700 VRB05KT P6SM SCT050 FM230300 VRB05KT P6SM SCT100 BKN200
Issued Valid From Valid To
Jan-22 @ 11:30 UTC
(5 hours ago)
Jan-22 @ 12:00 UTC
(5 hours ago)
Jan-23 @ 12:00 UTC
(in 19 hours)
Jan-22 @ 12:00 to Jan-22 @ 17:00
KLND 221130Z 2212/2312 VRB05KT P6SM SCT030 BKN050
Wind Visibility Clouds
Variable at 5 knots Greater than 6 miles
  • Scattered at 3,000' AGL
  • Broken at 5,000' AGL
From Jan-22 @ 17:00 to Jan-23 @ 03:00
FM221700 VRB05KT P6SM SCT050
Wind Visibility Clouds
Variable at 5 knots Greater than 6 miles
  • Scattered at 5,000' AGL
From Jan-23 @ 03:00 to Jan-23 @ 12:00
FM230300 VRB05KT P6SM SCT100 BKN200
Wind Visibility Clouds
Variable at 5 knots Greater than 6 miles
  • Scattered at 10,000' AGL
  • Broken at 20,000' AGL
KLND 221130Z 2212/2312 VRB05KT P6SM SCT030 BKN050 FM221700 VRB05KT P6SM SCT050 FM230300 VRB05KT P6SM SCT100 BKN200
Issued Jan-22 @ 11:30 UTC
(5 hours ago)
Valid From Jan-22 @ 12:00 UTC
(5 hours ago)
Valid To Jan-23 @ 12:00 UTC
(in 19 hours)
Jan-22 @ 12:00 - Jan-22 @ 17:00
Wind Visibility
Variable at 5 knots Greater than 6 miles
Clouds
  • Scattered at 3,000' AGL
  • Broken at 5,000' AGL
From Jan-22 @ 17:00 - Jan-23 @ 03:00
Wind Visibility
Variable at 5 knots Greater than 6 miles
Clouds
  • Scattered at 5,000' AGL
From Jan-23 @ 03:00 - Jan-23 @ 12:00
Wind Visibility
Variable at 5 knots Greater than 6 miles
Clouds
  • Scattered at 10,000' AGL
  • Broken at 20,000' AGL